sensor_id;sensor_type;location;lat;lon;timestamp;pressure;altitude;pressure_sealevel;temperature;humidity
53514;BME280;39768;54.148;12.174;2023-02-02T00:03:45;100348.59;;;7.68;100.00
53514;BME280;39768;54.148;12.174;2023-02-02T00:07:46;100374.03;;;7.78;100.00
53514;BME280;39768;54.148;12.174;2023-02-02T00:11:48;100395.19;;;7.72;100.00
53514;BME280;39768;54.148;12.174;2023-02-02T00:15:52;100404.09;;;7.64;100.00
53514;BME280;39768;54.148;12.174;2023-02-02T00:19:53;100426.91;;;7.75;100.00
53514;BME280;39768;54.148;12.174;2023-02-02T00:23:55;100425.25;;;7.61;100.00
53514;BME280;39768;54.148;12.174;2023-02-02T00:27:57;100432.34;;;7.51;100.00
53514;BME280;39768;54.148;12.174;2023-02-02T00:31:59;100436.84;;;7.40;100.00
53514;BME280;39768;54.148;12.174;2023-02-02T00:36:00;100457.03;;;7.46;100.00
53514;BME280;39768;54.148;12.174;2023-02-02T00:40:02;100467.63;;;7.39;100.00
53514;BME280;39768;54.148;12.174;2023-02-02T00:44:04;100470.31;;;7.30;100.00
53514;BME280;39768;54.148;12.174;2023-02-02T00:48:24;100487.91;;;7.28;100.00
53514;BME280;39768;54.148;12.174;2023-02-02T00:52:26;100492.31;;;7.28;100.00
53514;BME280;39768;54.148;12.174;2023-02-02T00:56:27;100493.25;;;7.13;100.00
53514;BME280;39768;54.148;12.174;2023-02-02T01:00:29;100515.28;;;7.07;100.00
53514;BME280;39768;54.148;12.174;2023-02-02T01:04:30;100523.22;;;7.06;100.00
53514;BME280;39768;54.148;12.174;2023-02-02T01:08:32;100541.69;;;7.04;100.00
53514;BME280;39768;54.148;12.174;2023-02-02T01:12:34;100551.38;;;7.07;100.00
53514;BME280;39768;54.148;12.174;2023-02-02T01:16:35;100555.72;;;7.14;100.00
53514;BME280;39768;54.148;12.174;2023-02-02T01:20:37;100567.19;;;7.01;100.00
53514;BME280;39768;54.148;12.174;2023-02-02T01:24:38;100576.88;;;7.03;100.00
53514;BME280;39768;54.148;12.174;2023-02-02T01:28:40;100583.91;;;7.03;100.00
53514;BME280;39768;54.148;12.174;2023-02-02T01:32:42;100593.63;;;6.93;100.00
53514;BME280;39768;54.148;12.174;2023-02-02T01:36:43;100595.38;;;6.91;100.00
53514;BME280;39768;54.148;12.174;2023-02-02T01:40:49;100605.03;;;6.88;100.00
53514;BME280;39768;54.148;12.174;2023-02-02T01:48:59;100636.72;;;6.91;100.00
53514;BME280;39768;54.148;12.174;2023-02-02T01:53:03;100644.63;;;6.97;100.00
53514;BME280;39768;54.148;12.174;2023-02-02T01:57:43;100658.69;;;6.87;100.00
53514;BME280;39768;54.148;12.174;2023-02-02T02:01:47;100658.69;;;6.90;100.00
53514;BME280;39768;54.148;12.174;2023-02-02T02:05:55;100668.38;;;6.95;100.00
53514;BME280;39768;54.148;12.174;2023-02-02T02:09:58;100676.28;;;6.85;100.00
53514;BME280;39768;54.148;12.174;2023-02-02T02:14:02;100693.88;;;6.80;100.00
53514;BME280;39768;54.148;12.174;2023-02-02T02:22:59;100707.91;;;6.51;100.00
53514;BME280;39768;54.148;12.174;2023-02-02T02:28:02;100716.69;;;6.56;100.00
53514;BME280;39768;54.148;12.174;2023-02-02T02:40:35;100750.84;;;6.14;100.00
53514;BME280;39768;54.148;12.174;2023-02-02T02:44:40;100762.28;;;6.16;100.00
53514;BME280;39768;54.148;12.174;2023-02-02T02:48:44;100768.38;;;6.10;100.00
53514;BME280;39768;54.148;12.174;2023-02-02T02:52:48;100773.63;;;6.04;100.00
53514;BME280;39768;54.148;12.174;2023-02-02T03:01:17;100799.97;;;6.03;100.00
53514;BME280;39768;54.148;12.174;2023-02-02T03:09:45;100807.13;;;6.22;100.00
53514;BME280;39768;54.148;12.174;2023-02-02T03:13:48;100818.44;;;6.06;100.00
53514;BME280;39768;54.148;12.174;2023-02-02T03:17:51;100829.97;;;6.21;100.00
53514;BME280;39768;54.148;12.174;2023-02-02T03:21:53;100835.16;;;6.08;100.00
53514;BME280;39768;54.148;12.174;2023-02-02T03:25:55;100832.41;;;5.91;100.00
53514;BME280;39768;54.148;12.174;2023-02-02T03:29:57;100846.56;;;6.05;100.00
53514;BME280;39768;54.148;12.174;2023-02-02T03:33:58;100861.50;;;6.09;100.00
53514;BME280;39768;54.148;12.174;2023-02-02T03:38:00;100865.00;;;6.04;100.00
53514;BME280;39768;54.148;12.174;2023-02-02T03:42:02;100864.91;;;5.91;100.00
53514;BME280;39768;54.148;12.174;2023-02-02T03:46:04;100873.75;;;6.03;100.00
53514;BME280;39768;54.148;12.174;2023-02-02T03:50:07;100885.22;;;6.11;100.00
53514;BME280;39768;54.148;12.174;2023-02-02T03:54:10;100890.47;;;6.05;100.00
53514;BME280;39768;54.148;12.174;2023-02-02T03:58:12;100901.06;;;6.15;100.00
53514;BME280;39768;54.148;12.174;2023-02-02T04:02:13;100908.16;;;6.27;100.00
53514;BME280;39768;54.148;12.174;2023-02-02T04:06:15;100913.47;;;6.30;100.00
53514;BME280;39768;54.148;12.174;2023-02-02T04:10:17;100917.00;;;6.32;100.00
53514;BME280;39768;54.148;12.174;2023-02-02T04:14:18;100933.53;;;6.07;100.00
53514;BME280;39768;54.148;12.174;2023-02-02T04:18:20;100942.38;;;6.16;100.00
53514;BME280;39768;54.148;12.174;2023-02-02T04:22:21;100947.56;;;6.09;100.00
53514;BME280;39768;54.148;12.174;2023-02-02T04:26:23;100952.03;;;6.16;100.00
53514;BME280;39768;54.148;12.174;2023-02-02T04:30:27;100952.78;;;5.99;100.00
53514;BME280;39768;54.148;12.174;2023-02-02T04:34:29;100964.34;;;6.17;100.00
53514;BME280;39768;54.148;12.174;2023-02-02T04:38:30;100970.44;;;6.11;100.00
53514;BME280;39768;54.148;12.174;2023-02-02T04:42:31;100975.69;;;6.05;100.00
53514;BME280;39768;54.148;12.174;2023-02-02T04:46:35;100969.47;;;5.98;100.00
53514;BME280;39768;54.148;12.174;2023-02-02T04:50:36;100975.72;;;6.11;100.00
53514;BME280;39768;54.148;12.174;2023-02-02T04:54:38;100982.59;;;5.91;100.00
53514;BME280;39768;54.148;12.174;2023-02-02T04:58:40;100986.13;;;5.96;100.00
53514;BME280;39768;54.148;12.174;2023-02-02T05:02:41;101002.78;;;5.90;100.00
53514;BME280;39768;54.148;12.174;2023-02-02T05:06:43;101002.78;;;5.90;100.00
53514;BME280;39768;54.148;12.174;2023-02-02T05:10:45;101009.91;;;6.02;100.00
53514;BME280;39768;54.148;12.174;2023-02-02T05:14:46;101003.72;;;6.00;100.00
53514;BME280;39768;54.148;12.174;2023-02-02T05:18:50;101014.22;;;5.95;100.00
53514;BME280;39768;54.148;12.174;2023-02-02T05:22:51;101022.28;;;6.11;100.00
53514;BME280;39768;54.148;12.174;2023-02-02T05:26:53;101018.63;;;5.96;100.00
53514;BME280;39768;54.148;12.174;2023-02-02T05:30:58;101023.88;;;5.92;100.00
53514;BME280;39768;54.148;12.174;2023-02-02T05:35:00;101024.75;;;5.92;100.00
53514;BME280;39768;54.148;12.174;2023-02-02T05:39:01;101028.28;;;5.96;100.00
53514;BME280;39768;54.148;12.174;2023-02-02T05:43:03;101031.66;;;5.84;100.00
53514;BME280;39768;54.148;12.174;2023-02-02T05:47:05;101036.91;;;5.84;100.00
53514;BME280;39768;54.148;12.174;2023-02-02T05:51:14;101039.66;;;5.89;100.00
53514;BME280;39768;54.148;12.174;2023-02-02T05:55:17;101046.03;;;6.14;100.00
53514;BME280;39768;54.148;12.174;2023-02-02T05:59:20;101042.66;;;6.30;100.00
53514;BME280;39768;54.148;12.174;2023-02-02T06:03:22;101054.88;;;6.23;100.00
53514;BME280;39768;54.148;12.174;2023-02-02T06:07:24;101061.22;;;6.45;100.00
53514;BME280;39768;54.148;12.174;2023-02-02T06:11:25;101063.91;;;6.47;100.00
53514;BME280;39768;54.148;12.174;2023-02-02T06:15:27;101067.47;;;6.52;100.00
53514;BME280;39768;54.148;12.174;2023-02-02T06:19:29;101076.25;;;6.55;100.00
53514;BME280;39768;54.148;12.174;2023-02-02T06:23:32;101080.72;;;6.61;100.00
53514;BME280;39768;54.148;12.174;2023-02-02T06:27:33;101093.97;;;6.71;100.00
53514;BME280;39768;54.148;12.174;2023-02-02T06:31:35;101101.81;;;6.62;100.00
53514;BME280;39768;54.148;12.174;2023-02-02T06:35:37;101100.94;;;6.62;100.00
53514;BME280;39768;54.148;12.174;2023-02-02T06:39:38;101105.41;;;6.73;100.00
53514;BME280;39768;54.148;12.174;2023-02-02T06:43:39;101119.47;;;6.72;100.00
53514;BME280;39768;54.148;12.174;2023-02-02T06:47:41;101119.53;;;6.77;100.00
53514;BME280;39768;54.148;12.174;2023-02-02T06:51:43;101126.63;;;6.87;100.00
53514;BME280;39768;54.148;12.174;2023-02-02T06:55:51;101136.34;;;6.91;100.00
53514;BME280;39768;54.148;12.174;2023-02-02T06:59:53;101146.06;;;7.00;100.00
53514;BME280;39768;54.148;12.174;2023-02-02T07:03:54;101154.97;;;7.10;100.00
53514;BME280;39768;54.148;12.174;2023-02-02T07:07:56;101158.44;;;7.04;100.00
53514;BME280;39768;54.148;12.174;2023-02-02T07:11:57;101172.66;;;7.29;100.00
53514;BME280;39768;54.148;12.174;2023-02-02T07:15:59;101180.59;;;7.26;100.00
53514;BME280;39768;54.148;12.174;2023-02-02T07:20:03;101187.59;;;7.21;100.00
53514;BME280;39768;54.148;12.174;2023-02-02T07:24:05;101202.53;;;7.19;100.00
53514;BME280;39768;54.148;12.174;2023-02-02T07:28:07;101214.72;;;7.03;100.00
53514;BME280;39768;54.148;12.174;2023-02-02T07:32:08;101220.78;;;6.90;100.00
53514;BME280;39768;54.148;12.174;2023-02-02T07:36:15;101227.84;;;6.92;100.00
53514;BME280;39768;54.148;12.174;2023-02-02T07:40:17;101234.97;;;7.02;100.00
53514;BME280;39768;54.148;12.174;2023-02-02T07:44:18;101247.13;;;6.82;100.00
53514;BME280;39768;54.148;12.174;2023-02-02T07:48:20;101249.38;;;6.47;100.00
53514;BME280;39768;54.148;12.174;2023-02-02T07:52:22;101265.94;;;6.34;100.00
53514;BME280;39768;54.148;12.174;2023-02-02T07:56:25;101271.16;;;6.31;100.00
53514;BME280;39768;54.148;12.174;2023-02-02T08:00:28;101281.00;;;6.44;100.00
53514;BME280;39768;54.148;12.174;2023-02-02T08:04:30;101279.13;;;6.34;100.00
53514;BME280;39768;54.148;12.174;2023-02-02T08:08:33;101286.22;;;6.38;100.00
53514;BME280;39768;54.148;12.174;2023-02-02T08:12:35;101302.00;;;6.36;100.00
53514;BME280;39768;54.148;12.174;2023-02-02T08:16:36;101306.56;;;6.50;100.00
53514;BME280;39768;54.148;12.174;2023-02-02T08:20:38;101318.88;;;6.51;100.00
53514;BME280;39768;54.148;12.174;2023-02-02T08:24:39;101324.94;;;6.45;100.00
53514;BME280;39768;54.148;12.174;2023-02-02T08:28:45;101342.66;;;6.55;100.00
53514;BME280;39768;54.148;12.174;2023-02-02T08:32:47;101349.00;;;6.71;100.00
53514;BME280;39768;54.148;12.174;2023-02-02T08:36:48;101358.22;;;7.08;100.00
53514;BME280;39768;54.148;12.174;2023-02-02T08:41:03;101374.81;;;6.96;100.00
53514;BME280;39768;54.148;12.174;2023-02-02T08:45:05;101389.38;;;6.64;100.00
53514;BME280;39768;54.148;12.174;2023-02-02T08:49:27;101401.13;;;6.22;100.00
53514;BME280;39768;54.148;12.174;2023-02-02T08:53:32;101411.06;;;6.43;100.00
53514;BME280;39768;54.148;12.174;2023-02-02T08:57:34;101414.63;;;6.45;100.00
53514;BME280;39768;54.148;12.174;2023-02-02T09:01:37;101430.00;;;6.15;100.00
53514;BME280;39768;54.148;12.174;2023-02-02T09:05:38;101440.50;;;6.12;100.00
53514;BME280;39768;54.148;12.174;2023-02-02T09:09:40;101452.81;;;6.13;100.00
53514;BME280;39768;54.148;12.174;2023-02-02T09:13:42;101455.81;;;5.84;100.00
53514;BME280;39768;54.148;12.174;2023-02-02T09:17:47;101453.56;;;5.56;100.00
53514;BME280;39768;54.148;12.174;2023-02-02T09:21:49;101466.19;;;5.74;100.00
53514;BME280;39768;54.148;12.174;2023-02-02T09:26:23;101469.19;;;5.92;100.00
53514;BME280;39768;54.148;12.174;2023-02-02T09:30:25;101471.50;;;5.75;100.00
53514;BME280;39768;54.148;12.174;2023-02-02T09:34:27;101494.34;;;5.76;100.00
53514;BME280;39768;54.148;12.174;2023-02-02T09:38:28;101492.97;;;5.51;100.00
53514;BME280;39768;54.148;12.174;2023-02-02T09:42:57;101510.25;;;5.37;99.64
53514;BME280;39768;54.148;12.174;2023-02-02T09:51:22;101526.19;;;5.43;96.39
53514;BME280;39768;54.148;12.174;2023-02-02T09:55:30;101523.25;;;5.73;98.05
53514;BME280;39768;54.148;12.174;2023-02-02T09:59:38;101535.16;;;5.53;97.63
53514;BME280;39768;54.148;12.174;2023-02-02T10:08:00;101550.81;;;5.45;96.41
53514;BME280;39768;54.148;12.174;2023-02-02T10:16:37;101571.66;;;5.36;96.52
53514;BME280;39768;54.148;12.174;2023-02-02T10:20:58;101580.19;;;5.23;97.35
53514;BME280;39768;54.148;12.174;2023-02-02T10:24:59;101587.66;;;5.44;97.42
53514;BME280;39768;54.148;12.174;2023-02-02T10:29:14;101586.88;;;5.48;97.05
53514;BME280;39768;54.148;12.174;2023-02-02T10:33:38;101608.91;;;5.54;98.26
53514;BME280;39768;54.148;12.174;2023-02-02T10:37:59;101617.41;;;5.83;99.41
53514;BME280;39768;54.148;12.174;2023-02-02T10:42:42;101616.78;;;5.95;93.40
53514;BME280;39768;54.148;12.174;2023-02-02T10:47:10;101629.66;;;5.81;94.32
53514;BME280;39768;54.148;12.174;2023-02-02T10:51:25;101628.63;;;5.73;96.72
53514;BME280;39768;54.148;12.174;2023-02-02T10:56:02;101622.91;;;5.92;95.24
53514;BME280;39768;54.148;12.174;2023-02-02T11:04:27;101639.44;;;5.87;97.81
53514;BME280;39768;54.148;12.174;2023-02-02T11:08:49;101635.56;;;5.70;96.21
53514;BME280;39768;54.148;12.174;2023-02-02T11:12:57;101647.38;;;5.46;97.84
53514;BME280;39768;54.148;12.174;2023-02-02T11:17:05;101667.50;;;5.43;96.59
53514;BME280;39768;54.148;12.174;2023-02-02T11:25:26;101677.91;;;5.77;95.71
53514;BME280;39768;54.148;12.174;2023-02-02T11:29:50;101684.84;;;5.74;96.99
53514;BME280;39768;54.148;12.174;2023-02-02T11:33:53;101685.03;;;5.83;96.12
53514;BME280;39768;54.148;12.174;2023-02-02T11:38:09;101693.75;;;5.79;98.19
53514;BME280;39768;54.148;12.174;2023-02-02T11:42:21;101698.81;;;5.70;98.44
53514;BME280;39768;54.148;12.174;2023-02-02T11:46:28;101696.28;;;5.74;97.95
53514;BME280;39768;54.148;12.174;2023-02-02T11:50:34;101702.75;;;5.88;97.55
53514;BME280;39768;54.148;12.174;2023-02-02T11:54:37;101704.28;;;5.80;98.58
53514;BME280;39768;54.148;12.174;2023-02-02T11:58:48;101711.84;;;5.63;98.51
53514;BME280;39768;54.148;12.174;2023-02-02T12:02:50;101701.56;;;6.16;98.51
53514;BME280;39768;54.148;12.174;2023-02-02T12:06:51;101707.06;;;6.77;96.95
53514;BME280;39768;54.148;12.174;2023-02-02T12:11:03;101711.22;;;6.16;96.24
53514;BME280;39768;54.148;12.174;2023-02-02T12:15:17;101720.13;;;6.21;99.19
53514;BME280;39768;54.148;12.174;2023-02-02T12:28:22;101717.78;;;6.36;95.49
53514;BME280;39768;54.148;12.174;2023-02-02T12:41:10;101730.78;;;6.28;94.61
53514;BME280;39768;54.148;12.174;2023-02-02T12:45:33;101741.06;;;6.15;95.13
53514;BME280;39768;54.148;12.174;2023-02-02T12:50:02;101742.00;;;6.17;94.26
53514;BME280;39768;54.148;12.174;2023-02-02T12:54:19;101744.91;;;6.30;96.94
53514;BME280;39768;54.148;12.174;2023-02-02T12:58:53;101740.06;;;6.10;96.79
53514;BME280;39768;54.148;12.174;2023-02-02T13:03:12;101748.81;;;6.06;98.27
53514;BME280;39768;54.148;12.174;2023-02-02T13:07:33;101750.56;;;6.50;97.29
53514;BME280;39768;54.148;12.174;2023-02-02T13:12:01;101750.06;;;6.71;96.90
53514;BME280;39768;54.148;12.174;2023-02-02T13:16:08;101760.13;;;6.92;96.34
53514;BME280;39768;54.148;12.174;2023-02-02T13:20:37;101768.03;;;6.92;94.03
53514;BME280;39768;54.148;12.174;2023-02-02T13:24:43;101767.56;;;6.66;93.24
53514;BME280;39768;54.148;12.174;2023-02-02T13:33:34;101784.41;;;6.29;94.33
53514;BME280;39768;54.148;12.174;2023-02-02T13:41:42;101794.25;;;6.36;96.52
53514;BME280;39768;54.148;12.174;2023-02-02T13:45:52;101799.56;;;6.39;96.87
53514;BME280;39768;54.148;12.174;2023-02-02T13:50:01;101803.75;;;6.29;97.03
53514;BME280;39768;54.148;12.174;2023-02-02T13:58:54;101819.59;;;6.29;97.73
53514;BME280;39768;54.148;12.174;2023-02-02T14:03:04;101835.72;;;6.45;98.55
53514;BME280;39768;54.148;12.174;2023-02-02T14:07:06;101838.88;;;6.70;98.01
53514;BME280;39768;54.148;12.174;2023-02-02T14:11:15;101842.03;;;6.51;97.87
53514;BME280;39768;54.148;12.174;2023-02-02T14:15:35;101850.28;;;6.69;97.24
53514;BME280;39768;54.148;12.174;2023-02-02T14:23:52;101866.97;;;6.67;100.00
53514;BME280;39768;54.148;12.174;2023-02-02T14:27:57;101869.72;;;6.73;100.00
53514;BME280;39768;54.148;12.174;2023-02-02T14:32:01;101881.16;;;6.31;100.00
53514;BME280;39768;54.148;12.174;2023-02-02T14:36:03;101881.94;;;6.27;100.00
53514;BME280;39768;54.148;12.174;2023-02-02T14:44:07;101901.28;;;6.28;100.00
53514;BME280;39768;54.148;12.174;2023-02-02T14:48:17;101912.81;;;6.31;100.00
53514;BME280;39768;54.148;12.174;2023-02-02T14:52:21;101919.75;;;6.28;100.00
53514;BME280;39768;54.148;12.174;2023-02-02T14:56:43;101921.59;;;6.30;100.00
53514;BME280;39768;54.148;12.174;2023-02-02T15:01:01;101918.56;;;6.14;100.00
53514;BME280;39768;54.148;12.174;2023-02-02T15:09:36;101936.88;;;6.09;100.00
53514;BME280;39768;54.148;12.174;2023-02-02T15:13:38;101929.72;;;6.02;100.00
53514;BME280;39768;54.148;12.174;2023-02-02T15:21:50;101946.63;;;6.12;100.00
53514;BME280;39768;54.148;12.174;2023-02-02T15:26:06;101947.75;;;6.21;100.00
53514;BME280;39768;54.148;12.174;2023-02-02T15:30:11;101949.00;;;6.37;100.00
53514;BME280;39768;54.148;12.174;2023-02-02T15:34:26;101956.97;;;6.03;100.00
53514;BME280;39768;54.148;12.174;2023-02-02T15:38:49;101954.38;;;6.04;100.00
53514;BME280;39768;54.148;12.174;2023-02-02T15:42:57;101957.78;;;6.00;100.00
53514;BME280;39768;54.148;12.174;2023-02-02T15:47:02;101955.19;;;6.01;100.00
53514;BME280;39768;54.148;12.174;2023-02-02T15:51:16;101960.69;;;6.12;100.00
53514;BME280;39768;54.148;12.174;2023-02-02T15:55:21;101956.91;;;6.01;100.00
53514;BME280;39768;54.148;12.174;2023-02-02T15:59:29;101974.75;;;5.77;100.00
53514;BME280;39768;54.148;12.174;2023-02-02T16:03:44;101974.59;;;5.72;100.00
53514;BME280;39768;54.148;12.174;2023-02-02T16:08:13;101975.16;;;5.59;100.00
53514;BME280;39768;54.148;12.174;2023-02-02T16:12:26;101982.28;;;5.63;100.00
53514;BME280;39768;54.148;12.174;2023-02-02T16:16:33;101987.16;;;5.49;100.00
53514;BME280;39768;54.148;12.174;2023-02-02T16:26:23;102004.25;;;5.63;100.00
53514;BME280;39768;54.148;12.174;2023-02-02T16:30:30;102015.28;;;5.49;100.00
53514;BME280;39768;54.148;12.174;2023-02-02T16:38:41;102027.63;;;5.21;100.00
53514;BME280;39768;54.148;12.174;2023-02-02T16:42:42;102029.44;;;5.22;100.00
53514;BME280;39768;54.148;12.174;2023-02-02T16:46:46;102029.31;;;5.18;100.00
53514;BME280;39768;54.148;12.174;2023-02-02T16:51:07;102034.03;;;5.29;100.00
53514;BME280;39768;54.148;12.174;2023-02-02T16:55:09;102034.03;;;5.29;100.00
53514;BME280;39768;54.148;12.174;2023-02-02T16:59:17;102051.28;;;5.18;100.00
53514;BME280;39768;54.148;12.174;2023-02-02T17:03:30;102046.31;;;5.29;100.00
53514;BME280;39768;54.148;12.174;2023-02-02T17:07:34;102050.81;;;5.03;100.00
53514;BME280;39768;54.148;12.174;2023-02-02T17:11:37;102058.25;;;4.88;100.00
53514;BME280;39768;54.148;12.174;2023-02-02T17:15:38;102058.03;;;5.10;100.00
53514;BME280;39768;54.148;12.174;2023-02-02T17:19:40;102049.28;;;5.11;100.00
53514;BME280;39768;54.148;12.174;2023-02-02T17:23:42;102048.19;;;5.05;100.00
53514;BME280;39768;54.148;12.174;2023-02-02T17:27:45;102056.16;;;5.06;100.00
53514;BME280;39768;54.148;12.174;2023-02-02T17:31:47;102059.16;;;4.88;100.00
53514;BME280;39768;54.148;12.174;2023-02-02T17:35:49;102056.03;;;4.45;100.00
53514;BME280;39768;54.148;12.174;2023-02-02T17:39:56;102055.25;;;4.22;100.00
53514;BME280;39768;54.148;12.174;2023-02-02T17:43:58;102049.78;;;4.16;100.00
53514;BME280;39768;54.148;12.174;2023-02-02T17:48:00;102056.41;;;4.05;100.00
53514;BME280;39768;54.148;12.174;2023-02-02T17:52:01;102055.91;;;4.15;100.00
53514;BME280;39768;54.148;12.174;2023-02-02T17:56:03;102053.06;;;4.09;100.00
53514;BME280;39768;54.148;12.174;2023-02-02T18:00:05;102063.00;;;3.92;100.00
53514;BME280;39768;54.148;12.174;2023-02-02T18:04:10;102063.19;;;4.23;100.00
53514;BME280;39768;54.148;12.174;2023-02-02T18:08:13;102062.75;;;3.84;100.00
53514;BME280;39768;54.148;12.174;2023-02-02T18:12:15;102051.47;;;3.63;100.00
53514;BME280;39768;54.148;12.174;2023-02-02T18:16:16;102042.94;;;4.21;100.00
53514;BME280;39768;54.148;12.174;2023-02-02T18:20:20;102041.09;;;4.18;100.00
53514;BME280;39768;54.148;12.174;2023-02-02T18:24:21;102039.19;;;4.13;100.00
53514;BME280;39768;54.148;12.174;2023-02-02T18:28:23;102036.41;;;4.08;100.00
53514;BME280;39768;54.148;12.174;2023-02-02T18:32:24;102034.91;;;4.16;100.00
53514;BME280;39768;54.148;12.174;2023-02-02T18:36:26;102029.31;;;4.06;100.00
53514;BME280;39768;54.148;12.174;2023-02-02T18:40:28;102042.56;;;3.83;100.00
53514;BME280;39768;54.148;12.174;2023-02-02T18:44:29;102036.88;;;3.71;100.00
53514;BME280;39768;54.148;12.174;2023-02-02T18:48:31;102030.66;;;3.68;100.00
53514;BME280;39768;54.148;12.174;2023-02-02T18:52:34;102031.25;;;3.61;100.00
53514;BME280;39768;54.148;12.174;2023-02-02T18:56:35;102024.56;;;3.69;100.00
53514;BME280;39768;54.148;12.174;2023-02-02T19:00:37;102020.09;;;3.66;100.00
53514;BME280;39768;54.148;12.174;2023-02-02T19:04:39;102025.88;;;3.58;100.00
53514;BME280;39768;54.148;12.174;2023-02-02T19:09:00;102023.13;;;3.29;100.00
53514;BME280;39768;54.148;12.174;2023-02-02T19:13:22;102031.13;;;3.58;100.00
53514;BME280;39768;54.148;12.174;2023-02-02T19:17:24;102038.44;;;3.41;100.00
53514;BME280;39768;54.148;12.174;2023-02-02T19:21:28;102036.19;;;3.28;100.00
53514;BME280;39768;54.148;12.174;2023-02-02T19:25:30;102035.09;;;3.21;100.00
53514;BME280;39768;54.148;12.174;2023-02-02T19:29:34;102033.31;;;2.98;100.00
53514;BME280;39768;54.148;12.174;2023-02-02T19:33:43;102043.34;;;3.08;100.00
53514;BME280;39768;54.148;12.174;2023-02-02T19:37:45;102032.00;;;3.09;100.00
53514;BME280;39768;54.148;12.174;2023-02-02T19:41:49;102029.47;;;3.12;100.00
53514;BME280;39768;54.148;12.174;2023-02-02T19:45:53;102014.38;;;3.05;100.00
53514;BME280;39768;54.148;12.174;2023-02-02T19:49:55;102016.00;;;3.25;100.00
53514;BME280;39768;54.148;12.174;2023-02-02T19:53:58;102013.41;;;3.27;100.00
53514;BME280;39768;54.148;12.174;2023-02-02T19:58:11;102012.91;;;3.13;100.00
53514;BME280;39768;54.148;12.174;2023-02-02T20:02:52;102006.16;;;3.19;100.00
53514;BME280;39768;54.148;12.174;2023-02-02T20:06:55;102000.88;;;3.43;100.00
53514;BME280;39768;54.148;12.174;2023-02-02T20:11:13;102004.25;;;2.92;100.00
53514;BME280;39768;54.148;12.174;2023-02-02T20:15:21;102000.78;;;3.16;100.00
53514;BME280;39768;54.148;12.174;2023-02-02T20:19:28;101991.38;;;3.22;100.00
53514;BME280;39768;54.148;12.174;2023-02-02T20:23:41;101984.78;;;3.09;100.00
53514;BME280;39768;54.148;12.174;2023-02-02T20:27:43;101987.16;;;3.27;100.00
53514;BME280;39768;54.148;12.174;2023-02-02T20:31:46;101981.56;;;3.41;100.00
53514;BME280;39768;54.148;12.174;2023-02-02T20:35:48;101980.16;;;3.02;100.00
53514;BME280;39768;54.148;12.174;2023-02-02T20:39:59;101973.22;;;3.04;100.00
53514;BME280;39768;54.148;12.174;2023-02-02T20:44:01;101961.59;;;2.97;100.00
53514;BME280;39768;54.148;12.174;2023-02-02T20:48:03;101963.13;;;3.14;100.00
53514;BME280;39768;54.148;12.174;2023-02-02T20:52:07;101957.81;;;3.13;100.00
53514;BME280;39768;54.148;12.174;2023-02-02T21:12:37;101927.56;;;3.48;100.00
53514;BME280;39768;54.148;12.174;2023-02-02T21:17:18;101928.56;;;3.26;100.00
53514;BME280;39768;54.148;12.174;2023-02-02T21:28:34;101915.59;;;3.56;100.00
53514;BME280;39768;54.148;12.174;2023-02-02T21:33:57;101907.44;;;3.48;100.00
53514;BME280;39768;54.148;12.174;2023-02-02T21:39:59;101911.91;;;3.51;100.00
53514;BME280;39768;54.148;12.174;2023-02-02T21:57:26;101901.03;;;3.93;100.00
53514;BME280;39768;54.148;12.174;2023-02-02T22:03:04;101911.38;;;4.15;100.00
53514;BME280;39768;54.148;12.174;2023-02-02T22:07:41;101896.50;;;4.15;100.00
53514;BME280;39768;54.148;12.174;2023-02-02T22:13:39;101886.31;;;4.26;100.00
53514;BME280;39768;54.148;12.174;2023-02-02T22:25:49;101863.84;;;4.37;100.00
53514;BME280;39768;54.148;12.174;2023-02-02T22:31:28;101861.91;;;4.30;100.00
53514;BME280;39768;54.148;12.174;2023-02-02T22:37:21;101845.69;;;4.46;100.00
53514;BME280;39768;54.148;12.174;2023-02-02T23:16:58;101752.47;;;4.34;100.00
53514;BME280;39768;54.148;12.174;2023-02-02T23:29:53;101707.06;;;4.39;100.00
53514;BME280;39768;54.148;12.174;2023-02-02T23:34:25;101683.41;;;4.74;100.00
53514;BME280;39768;54.148;12.174;2023-02-02T23:38:26;101679.47;;;4.56;100.00
53514;BME280;39768;54.148;12.174;2023-02-02T23:42:28;101696.22;;;4.61;100.00
53514;BME280;39768;54.148;12.174;2023-02-02T23:53:05;101673.41;;;4.95;100.00
